createdAt,value
2017-06-26T00:02:01.603Z,17.90
2017-06-26T00:04:29.044Z,17.90
2017-06-26T00:06:57.258Z,17.90
2017-06-26T00:09:24.699Z,17.90
2017-06-26T00:11:52.143Z,17.80
2017-06-26T00:14:19.578Z,17.70
2017-06-26T00:16:47.794Z,17.40
2017-06-26T00:19:15.247Z,17.40
2017-06-26T00:21:42.702Z,17.30
2017-06-26T00:24:10.135Z,17.40
2017-06-26T00:26:37.570Z,17.40
2017-06-26T00:29:05.796Z,17.30
2017-06-26T00:31:33.231Z,17.30
2017-06-26T00:34:00.679Z,17.40
2017-06-26T00:36:28.115Z,17.30
2017-06-26T00:38:55.567Z,17.30
2017-06-26T00:41:23.012Z,17.30
2017-06-26T00:43:50.463Z,17.30
2017-06-26T00:46:17.911Z,17.30
2017-06-26T00:48:45.367Z,17.20
2017-06-26T00:51:12.811Z,17.00
2017-06-26T00:53:40.261Z,16.90
2017-06-26T00:56:07.710Z,16.90
2017-06-26T00:58:35.161Z,16.90
2017-06-26T01:01:02.611Z,16.80
2017-06-26T01:03:30.047Z,16.80
2017-06-26T01:05:57.499Z,16.90
2017-06-26T01:08:25.707Z,17.20
2017-06-26T01:10:53.167Z,17.20
2017-06-26T01:13:20.607Z,17.10
2017-06-26T01:15:48.055Z,17.20
2017-06-26T01:18:15.503Z,17.30
2017-06-26T01:20:42.943Z,17.30
2017-06-26T01:23:11.162Z,17.40
2017-06-26T01:25:38.612Z,17.40
2017-06-26T01:28:06.055Z,17.40
2017-06-26T01:30:33.494Z,17.50
2017-06-26T01:33:01.707Z,17.60
2017-06-26T01:35:29.147Z,17.60
2017-06-26T01:37:56.603Z,17.40
2017-06-26T01:40:24.046Z,17.50
2017-06-26T01:42:51.487Z,17.50
2017-06-26T01:45:19.707Z,17.20
2017-06-26T01:47:47.159Z,17.20
2017-06-26T01:50:14.617Z,17.20
2017-06-26T01:52:42.071Z,17.30
2017-06-26T01:55:09.527Z,17.30
2017-06-26T01:57:36.973Z,17.30
2017-06-26T02:00:04.419Z,17.20
2017-06-26T02:02:31.859Z,16.90
2017-06-26T02:05:00.070Z,16.60
2017-06-26T02:07:27.527Z,16.60
2017-06-26T02:09:54.976Z,16.50
2017-06-26T02:12:22.427Z,16.60
2017-06-26T02:14:49.871Z,16.60
2017-06-26T02:17:17.345Z,16.60
2017-06-26T02:19:44.778Z,16.40
2017-06-26T02:22:12.215Z,16.50
2017-06-26T02:24:40.440Z,16.50
2017-06-26T02:27:07.879Z,16.40
2017-06-26T02:29:35.322Z,16.40
2017-06-26T02:32:02.763Z,16.40
2017-06-26T02:34:30.978Z,16.30
2017-06-26T02:36:58.419Z,16.30
2017-06-26T02:39:25.871Z,16.30
2017-06-26T02:41:53.346Z,16.30
2017-06-26T02:44:20.784Z,16.30
2017-06-26T02:46:48.230Z,16.20
2017-06-26T02:49:15.670Z,16.20
2017-06-26T02:51:43.890Z,16.30
2017-06-26T02:54:11.335Z,16.30
2017-06-26T02:56:38.786Z,16.40
2017-06-26T02:59:06.221Z,16.30
2017-06-26T03:01:34.432Z,16.50
2017-06-26T03:04:01.881Z,16.50
2017-06-26T03:06:29.346Z,16.60
2017-06-26T03:08:56.838Z,16.50
2017-06-26T03:11:30.255Z,16.60
2017-06-26T03:13:58.471Z,16.50
2017-06-26T03:16:25.921Z,16.50
2017-06-26T03:18:53.377Z,16.30
2017-06-26T03:21:20.813Z,16.30
2017-06-26T03:23:48.254Z,16.40
2017-06-26T03:26:16.467Z,16.40
2017-06-26T03:28:43.927Z,16.40
2017-06-26T03:31:11.367Z,16.60
2017-06-26T03:33:38.815Z,16.00
2017-06-26T03:36:06.256Z,16.20
2017-06-26T03:38:34.489Z,16.30
2017-06-26T03:41:01.934Z,16.30
2017-06-26T03:43:29.381Z,16.10
2017-06-26T03:45:56.834Z,16.20
2017-06-26T03:48:24.285Z,16.10
2017-06-26T03:50:51.727Z,16.10
2017-06-26T03:53:19.171Z,15.90
2017-06-26T03:55:47.384Z,15.90
2017-06-26T03:58:14.838Z,15.90
2017-06-26T04:00:42.286Z,15.90
2017-06-26T04:03:09.744Z,16.00
2017-06-26T04:05:37.178Z,16.10
2017-06-26T04:08:04.631Z,16.20
2017-06-26T04:10:32.069Z,16.40
2017-06-26T04:13:00.289Z,16.20
2017-06-26T04:15:27.743Z,16.20
2017-06-26T04:17:55.187Z,16.40
2017-06-26T04:20:22.627Z,16.20
2017-06-26T04:22:50.095Z,16.10
2017-06-26T04:25:17.531Z,16.20
2017-06-26T04:27:45.743Z,16.50
2017-06-26T04:30:13.199Z,16.50
2017-06-26T04:32:40.648Z,17.10
2017-06-26T04:35:08.092Z,17.30
2017-06-26T04:37:35.532Z,17.60
2017-06-26T04:40:03.763Z,19.10
2017-06-26T04:42:31.202Z,19.00
2017-06-26T04:44:59.219Z,19.50
2017-06-26T04:47:27.646Z,20.90
2017-06-26T04:49:55.086Z,20.80
2017-06-26T04:52:22.534Z,19.80
2017-06-26T04:54:49.974Z,19.70
2017-06-26T04:57:17.419Z,21.30
2017-06-26T04:59:45.638Z,21.20
2017-06-26T05:02:13.075Z,21.10
2017-06-26T05:04:40.511Z,22.30
2017-06-26T05:07:07.958Z,22.80
2017-06-26T05:09:36.178Z,23.20
2017-06-26T05:12:03.610Z,23.20
2017-06-26T05:14:31.055Z,24.00
2017-06-26T05:16:59.270Z,25.40
2017-06-26T05:19:26.728Z,25.40
2017-06-26T05:21:54.166Z,26.00
2017-06-26T05:24:21.616Z,26.50
2017-06-26T05:26:49.060Z,27.40
2017-06-26T05:29:17.291Z,28.30
2017-06-26T05:31:44.740Z,28.20
2017-06-26T05:34:12.179Z,28.70
2017-06-26T05:36:39.635Z,28.40
2017-06-26T05:39:07.080Z,29.00
2017-06-26T05:41:34.526Z,29.00
2017-06-26T05:44:01.970Z,29.80
2017-06-26T05:46:29.419Z,29.90
2017-06-26T05:48:57.634Z,30.90
2017-06-26T05:51:25.092Z,30.90
2017-06-26T05:53:52.540Z,27.60
2017-06-26T05:56:20.003Z,28.00
2017-06-26T05:58:47.447Z,29.40
2017-06-26T06:01:14.890Z,27.70
2017-06-26T06:03:42.352Z,28.10
2017-06-26T06:06:09.851Z,28.10
2017-06-26T06:08:37.360Z,30.30
2017-06-26T06:11:04.837Z,30.10
2017-06-26T06:13:32.300Z,31.60
2017-06-26T06:15:59.743Z,32.90
2017-06-26T06:18:27.183Z,33.00
2017-06-26T06:20:54.631Z,30.80
2017-06-26T06:23:22.074Z,32.00
2017-06-26T06:25:49.525Z,31.80
2017-06-26T06:28:17.177Z,28.80
2017-06-26T06:30:44.618Z,31.10
2017-06-26T06:33:12.062Z,32.10
2017-06-26T06:35:39.527Z,33.60
2017-06-26T06:38:06.974Z,34.40
2017-06-26T06:40:34.422Z,34.80
2017-06-26T06:43:01.871Z,32.10
2017-06-26T06:45:29.311Z,32.50
2017-06-26T06:47:56.754Z,32.90
2017-06-26T06:50:24.970Z,30.70
2017-06-26T06:52:52.427Z,30.60
2017-06-26T06:55:19.883Z,30.70
2017-06-26T06:57:47.426Z,31.70
2017-06-26T07:00:14.882Z,33.00
2017-06-26T07:02:42.355Z,34.20
2017-06-26T07:05:09.805Z,33.80
2017-06-26T07:07:37.247Z,30.40
2017-06-26T07:10:04.699Z,28.50
2017-06-26T07:12:32.139Z,28.40
2017-06-26T07:15:00.354Z,26.70
2017-06-26T07:17:27.808Z,26.60
2017-06-26T07:19:55.264Z,28.50
2017-06-26T07:22:22.708Z,26.50
2017-06-26T07:24:50.156Z,27.70
2017-06-26T07:27:17.603Z,25.60
2017-06-26T07:29:45.069Z,27.00
2017-06-26T07:32:12.506Z,25.90
2017-06-26T07:34:40.718Z,29.50
2017-06-26T07:37:08.176Z,29.50
2017-06-26T07:39:35.618Z,31.30
2017-06-26T07:42:03.077Z,32.70
2017-06-26T07:44:30.537Z,32.10
2017-06-26T07:46:57.988Z,30.40
2017-06-26T07:49:25.427Z,32.10
2017-06-26T07:51:52.875Z,33.50
2017-06-26T07:54:21.086Z,34.50
2017-06-26T07:56:48.543Z,34.50
2017-06-26T07:59:16.000Z,33.40
2017-06-26T08:01:43.455Z,29.70
2017-06-26T08:04:10.895Z,28.20
2017-06-26T08:06:38.368Z,26.80
2017-06-26T08:09:05.815Z,27.30
2017-06-26T08:11:33.292Z,28.90
2017-06-26T08:14:00.798Z,29.90
2017-06-26T08:16:28.253Z,27.50
2017-06-26T08:18:55.776Z,26.40
2017-06-26T08:21:23.251Z,27.60
2017-06-26T08:23:50.753Z,27.40
2017-06-26T08:26:18.205Z,26.50
2017-06-26T08:28:45.656Z,27.20
2017-06-26T08:31:13.150Z,27.70
2017-06-26T08:33:40.604Z,28.00
2017-06-26T08:36:08.051Z,27.50
2017-06-26T08:38:35.578Z,27.30
2017-06-26T08:41:03.044Z,27.20
2017-06-26T08:43:30.499Z,27.60
2017-06-26T08:45:57.958Z,29.20
2017-06-26T08:48:25.411Z,30.30
2017-06-26T08:50:52.874Z,29.80
2017-06-26T08:53:20.340Z,30.80
2017-06-26T08:55:47.793Z,30.20
2017-06-26T08:58:15.247Z,30.10
2017-06-26T09:00:42.697Z,31.30
2017-06-26T09:03:10.148Z,28.50
2017-06-26T09:05:37.599Z,27.90
2017-06-26T09:08:05.043Z,29.10
2017-06-26T09:10:32.510Z,30.00
2017-06-26T09:12:59.951Z,29.20
2017-06-26T09:15:27.400Z,28.10
2017-06-26T09:17:54.863Z,29.40
2017-06-26T09:20:22.318Z,31.30
2017-06-26T09:22:49.779Z,32.20
2017-06-26T09:25:17.233Z,32.20
2017-06-26T09:27:44.686Z,32.70
2017-06-26T09:30:12.138Z,32.20
2017-06-26T09:32:39.583Z,31.60
2017-06-26T09:35:07.027Z,31.20
2017-06-26T09:37:34.475Z,30.10
2017-06-26T09:40:01.915Z,30.20
2017-06-26T09:42:30.148Z,32.90
2017-06-26T09:44:57.586Z,32.90
2017-06-26T09:47:25.039Z,31.30
2017-06-26T09:49:52.498Z,30.10
2017-06-26T09:52:19.951Z,29.60
2017-06-26T09:54:47.396Z,30.60
2017-06-26T09:57:14.830Z,31.40
2017-06-26T09:59:43.051Z,32.40
2017-06-26T10:02:10.503Z,32.40
2017-06-26T10:04:37.955Z,33.30
2017-06-26T10:07:05.395Z,33.60
2017-06-26T10:09:32.846Z,33.80
2017-06-26T10:12:00.288Z,33.40
2017-06-26T10:14:27.739Z,33.10
2017-06-26T10:16:55.179Z,33.00
2017-06-26T10:19:22.626Z,33.10
2017-06-26T10:21:50.071Z,33.70
2017-06-26T10:24:17.528Z,33.90
2017-06-26T10:26:44.967Z,33.50
2017-06-26T10:29:12.410Z,32.10
2017-06-26T10:31:39.870Z,32.30
2017-06-26T10:34:07.324Z,33.30
2017-06-26T10:36:34.802Z,34.00
2017-06-26T10:39:02.251Z,32.20
2017-06-26T10:41:29.691Z,33.20
2017-06-26T10:43:57.135Z,34.10
2017-06-26T10:46:24.587Z,34.90
2017-06-26T10:48:52.035Z,35.10
2017-06-26T10:51:19.486Z,34.70
2017-06-26T10:53:47.695Z,33.80
2017-06-26T10:56:15.147Z,33.70
2017-06-26T10:58:42.603Z,31.20
2017-06-26T11:01:10.048Z,31.30
2017-06-26T11:03:37.497Z,33.00
2017-06-26T11:06:04.934Z,33.40
2017-06-26T11:08:32.383Z,33.40
2017-06-26T11:11:00.603Z,33.30
2017-06-26T11:13:28.059Z,33.30
2017-06-26T11:15:55.507Z,32.60
2017-06-26T11:18:22.947Z,31.40
2017-06-26T11:20:50.393Z,30.20
2017-06-26T11:23:17.835Z,31.70
2017-06-26T11:25:46.044Z,30.20
2017-06-26T11:28:13.494Z,30.20
2017-06-26T11:30:40.943Z,31.30
2017-06-26T11:33:08.382Z,32.40
2017-06-26T11:35:36.595Z,33.90
2017-06-26T11:38:04.038Z,33.90
2017-06-26T11:40:31.491Z,34.30
2017-06-26T11:42:58.935Z,31.90
2017-06-26T11:45:26.379Z,30.20
2017-06-26T11:47:54.594Z,31.80
2017-06-26T11:50:22.055Z,31.70
2017-06-26T11:52:49.511Z,31.40
2017-06-26T11:55:16.962Z,32.20
2017-06-26T11:57:44.407Z,32.60
2017-06-26T12:00:11.847Z,31.20
2017-06-26T12:02:40.054Z,32.20
2017-06-26T12:05:07.507Z,32.10
2017-06-26T12:07:34.963Z,32.60
2017-06-26T12:10:02.419Z,32.20
2017-06-26T12:12:29.862Z,32.70
2017-06-26T12:14:57.344Z,33.30
2017-06-26T12:17:24.787Z,33.20
2017-06-26T12:19:52.231Z,32.90
2017-06-26T12:22:19.680Z,32.90
2017-06-26T12:24:47.118Z,32.80
2017-06-26T12:27:14.560Z,33.50
2017-06-26T12:29:42.770Z,34.30
2017-06-26T12:32:10.215Z,34.30
2017-06-26T12:34:37.664Z,34.10
2017-06-26T12:37:05.103Z,34.00
2017-06-26T12:39:33.328Z,33.30
2017-06-26T12:42:00.771Z,33.30
2017-06-26T12:44:28.219Z,33.50
2017-06-26T12:46:55.658Z,32.50
2017-06-26T12:49:23.871Z,29.60
2017-06-26T12:51:51.311Z,29.50
2017-06-26T12:54:18.764Z,30.80
2017-06-26T12:56:46.205Z,31.50
2017-06-26T12:59:14.450Z,31.70
2017-06-26T13:01:41.895Z,31.80
2017-06-26T13:04:09.338Z,32.30
2017-06-26T13:06:36.790Z,32.90
2017-06-26T13:09:04.235Z,33.40
2017-06-26T13:11:31.690Z,33.60
2017-06-26T13:13:59.136Z,32.30
2017-06-26T13:16:26.602Z,30.90
2017-06-26T13:18:54.046Z,31.30
2017-06-26T13:21:21.495Z,31.50
2017-06-26T13:23:48.935Z,30.30
2017-06-26T13:26:17.147Z,30.50
2017-06-26T13:28:44.597Z,30.50
2017-06-26T13:31:12.031Z,30.10
2017-06-26T13:33:39.475Z,31.00
2017-06-26T13:36:07.696Z,31.90
2017-06-26T13:38:35.143Z,31.90
2017-06-26T13:41:02.587Z,31.70
2017-06-26T13:43:30.043Z,32.10
2017-06-26T13:45:57.490Z,32.20
2017-06-26T13:48:24.943Z,32.50
2017-06-26T13:50:52.379Z,32.30
2017-06-26T13:53:20.603Z,32.10
2017-06-26T13:55:48.049Z,32.10
2017-06-26T13:58:15.490Z,32.30
2017-06-26T14:00:42.934Z,32.50
2017-06-26T14:03:10.379Z,32.70
2017-06-26T14:05:38.599Z,32.60
2017-06-26T14:08:06.073Z,32.60
2017-06-26T14:10:33.510Z,32.00
2017-06-26T14:13:00.955Z,32.30
2017-06-26T14:15:28.396Z,32.10
2017-06-26T14:17:55.840Z,32.30
2017-06-26T14:20:24.054Z,32.30
2017-06-26T14:22:51.507Z,32.20
2017-06-26T14:25:18.963Z,32.40
2017-06-26T14:27:46.407Z,31.00
2017-06-26T14:30:13.858Z,31.30
2017-06-26T14:32:41.300Z,31.60
2017-06-26T14:35:09.532Z,32.20
2017-06-26T14:37:36.987Z,32.10
2017-06-26T14:40:04.451Z,32.30
2017-06-26T14:42:31.898Z,32.10
2017-06-26T14:45:00.015Z,32.30
2017-06-26T14:47:27.454Z,32.10
2017-06-26T14:49:55.678Z,32.20
2017-06-26T14:52:23.130Z,32.10
2017-06-26T14:54:50.603Z,31.50
2017-06-26T14:57:18.051Z,31.70
2017-06-26T14:59:45.503Z,32.00
2017-06-26T15:02:12.959Z,32.00
2017-06-26T15:04:40.414Z,32.20
2017-06-26T15:07:07.883Z,32.00
2017-06-26T15:09:35.328Z,32.10
2017-06-26T15:12:02.784Z,32.00
2017-06-26T15:14:30.226Z,31.80
2017-06-26T15:16:57.694Z,31.70
2017-06-26T15:19:25.139Z,31.60
2017-06-26T15:21:52.578Z,31.80
2017-06-26T15:24:20.027Z,31.60
2017-06-26T15:26:48.238Z,31.70
2017-06-26T15:29:15.699Z,31.70
2017-06-26T15:31:43.151Z,31.60
2017-06-26T15:34:10.608Z,31.50
2017-06-26T15:36:38.047Z,31.70
2017-06-26T15:39:05.503Z,31.50
2017-06-26T15:41:32.939Z,30.90
2017-06-26T15:44:01.150Z,31.10
2017-06-26T15:46:28.591Z,31.10
2017-06-26T15:48:56.060Z,31.00
2017-06-26T15:51:23.511Z,31.10
2017-06-26T15:53:50.946Z,31.20
2017-06-26T15:56:18.391Z,31.30
2017-06-26T15:58:46.604Z,31.30
2017-06-26T16:01:14.062Z,31.30
2017-06-26T16:03:41.519Z,31.00
2017-06-26T16:06:08.972Z,31.00
2017-06-26T16:08:36.420Z,31.10
2017-06-26T16:11:03.863Z,30.70
2017-06-26T16:13:31.310Z,30.80
2017-06-26T16:15:58.759Z,30.70
2017-06-26T16:18:26.970Z,30.70
2017-06-26T16:20:54.411Z,30.70
2017-06-26T16:23:21.859Z,30.70
2017-06-26T16:25:49.303Z,30.20
2017-06-26T16:28:17.522Z,30.30
2017-06-26T16:30:44.971Z,30.40
2017-06-26T16:33:12.427Z,30.40
2017-06-26T16:35:39.867Z,30.20
2017-06-26T16:38:07.319Z,30.30
2017-06-26T16:40:34.759Z,30.00
2017-06-26T16:43:02.211Z,30.10
2017-06-26T16:45:30.423Z,29.90
2017-06-26T16:47:57.899Z,29.90
2017-06-26T16:50:25.350Z,29.80
2017-06-26T16:52:52.791Z,29.80
2017-06-26T16:55:20.246Z,29.80
2017-06-26T16:57:47.691Z,29.50
2017-06-26T17:00:15.139Z,29.40
2017-06-26T17:02:42.579Z,29.40
2017-06-26T17:05:10.788Z,29.20
2017-06-26T17:07:38.238Z,29.20
2017-06-26T17:10:05.682Z,28.90
2017-06-26T17:12:33.122Z,29.00
2017-06-26T17:15:01.359Z,28.70
2017-06-26T17:17:28.810Z,28.60
2017-06-26T17:19:56.246Z,28.60
2017-06-26T17:22:23.699Z,28.70
2017-06-26T17:24:51.149Z,28.50
2017-06-26T17:27:18.599Z,28.50
2017-06-26T17:29:46.039Z,28.70
2017-06-26T17:32:13.487Z,28.80
2017-06-26T17:34:41.695Z,28.90
2017-06-26T17:37:09.152Z,28.90
2017-06-26T17:39:36.595Z,28.90
2017-06-26T17:42:04.043Z,28.80
2017-06-26T17:44:31.486Z,28.80
2017-06-26T17:46:59.759Z,28.60
2017-06-26T17:49:27.971Z,28.70
2017-06-26T17:51:55.431Z,28.70
2017-06-26T17:54:22.885Z,28.80
2017-06-26T17:56:50.334Z,28.60
2017-06-26T17:59:17.780Z,28.70
2017-06-26T18:01:45.215Z,28.50
2017-06-26T18:04:13.430Z,28.40
2017-06-26T18:06:40.884Z,28.40
2017-06-26T18:09:08.340Z,28.30
2017-06-26T18:11:35.789Z,28.50
2017-06-26T18:14:03.243Z,28.50
2017-06-26T18:16:30.676Z,28.40
2017-06-26T18:18:58.162Z,28.20
2017-06-26T18:21:25.625Z,28.00
2017-06-26T18:23:53.075Z,28.10
2017-06-26T18:26:20.532Z,28.00
2017-06-26T18:28:47.988Z,28.10
2017-06-26T18:31:15.430Z,28.10
2017-06-26T18:33:42.870Z,28.10
2017-06-26T18:36:10.323Z,27.90
2017-06-26T18:38:37.856Z,27.80
2017-06-26T18:41:06.075Z,27.90
2017-06-26T18:43:33.525Z,27.90
2017-06-26T18:46:00.979Z,27.80
2017-06-26T18:48:28.425Z,27.60
2017-06-26T18:50:55.900Z,27.50
2017-06-26T18:53:23.343Z,27.30
2017-06-26T18:55:50.790Z,27.10
2017-06-26T18:58:18.247Z,26.90
2017-06-26T19:00:45.690Z,27.00
2017-06-26T19:03:13.147Z,27.10
2017-06-26T19:05:40.601Z,27.20
2017-06-26T19:08:08.063Z,27.00
2017-06-26T19:10:35.505Z,26.90
2017-06-26T19:13:02.989Z,26.90
2017-06-26T19:15:30.439Z,26.90
2017-06-26T19:17:57.887Z,26.80
2017-06-26T19:20:25.331Z,26.70
2017-06-26T19:22:52.789Z,26.60
2017-06-26T19:25:20.279Z,26.60
2017-06-26T19:27:47.724Z,26.60
2017-06-26T19:30:15.179Z,26.70
2017-06-26T19:32:42.626Z,26.50
2017-06-26T19:35:10.106Z,26.40
2017-06-26T19:37:38.322Z,26.30
2017-06-26T19:40:05.795Z,26.20
2017-06-26T19:42:33.239Z,26.20
2017-06-26T19:45:00.695Z,26.20
2017-06-26T19:47:28.149Z,25.80
2017-06-26T19:49:55.611Z,25.70
2017-06-26T19:52:23.150Z,25.70
2017-06-26T19:54:50.650Z,25.40
2017-06-26T19:57:18.091Z,25.30
2017-06-26T19:59:45.821Z,25.00
2017-06-26T20:02:13.295Z,25.00
2017-06-26T20:04:40.797Z,24.80
2017-06-26T20:07:08.243Z,24.70
2017-06-26T20:09:35.719Z,24.70
2017-06-26T20:12:03.957Z,23.90
2017-06-26T20:14:31.399Z,23.90
2017-06-26T20:16:58.855Z,23.80
2017-06-26T20:19:26.302Z,24.00
2017-06-26T20:21:53.751Z,23.70
2017-06-26T20:24:21.190Z,23.50
2017-06-26T20:26:48.634Z,23.30
2017-06-26T20:29:16.850Z,23.00
2017-06-26T20:31:44.303Z,23.00
2017-06-26T20:34:11.750Z,23.10
2017-06-26T20:36:39.191Z,23.30
2017-06-26T20:39:06.640Z,23.20
2017-06-26T20:41:34.851Z,23.10
2017-06-26T20:44:02.310Z,23.10
2017-06-26T20:46:29.759Z,23.20
2017-06-26T20:48:57.215Z,23.20
2017-06-26T20:51:24.652Z,23.30
2017-06-26T20:53:52.134Z,23.10
2017-06-26T20:56:19.583Z,23.20
2017-06-26T20:58:47.019Z,23.20
2017-06-26T21:01:14.468Z,23.10
2017-06-26T21:03:42.703Z,23.10
2017-06-26T21:06:10.151Z,23.00
2017-06-26T21:08:37.601Z,23.10
2017-06-26T21:11:05.046Z,23.00
2017-06-26T21:13:32.478Z,23.00
2017-06-26T21:15:59.932Z,23.00
2017-06-26T21:18:27.375Z,22.90
2017-06-26T21:20:54.818Z,22.80
2017-06-26T21:23:23.035Z,22.50
2017-06-26T21:25:50.475Z,22.50
2017-06-26T21:28:17.915Z,22.40
2017-06-26T21:30:46.136Z,22.10
2017-06-26T21:33:13.584Z,22.00
2017-06-26T21:35:41.032Z,21.90
2017-06-26T21:38:08.472Z,22.00
2017-06-26T21:40:35.914Z,22.10
2017-06-26T21:43:04.124Z,22.40
2017-06-26T21:45:31.567Z,22.40
2017-06-26T21:47:59.010Z,22.30
2017-06-26T21:50:26.450Z,22.40
2017-06-26T21:52:54.667Z,22.30
2017-06-26T21:55:22.108Z,22.30
2017-06-26T21:57:49.579Z,22.30
2017-06-26T22:00:17.028Z,22.30
2017-06-26T22:02:44.463Z,22.50
2017-06-26T22:05:11.918Z,22.60
2017-06-26T22:07:39.364Z,22.80
2017-06-26T22:10:07.576Z,23.00
2017-06-26T22:12:35.020Z,23.00
2017-06-26T22:15:02.462Z,23.00
2017-06-26T22:17:29.902Z,23.00
2017-06-26T22:19:58.120Z,23.10
2017-06-26T22:22:25.554Z,23.00
2017-06-26T22:24:53.006Z,23.10
2017-06-26T22:27:20.448Z,23.20
2017-06-26T22:29:47.892Z,23.30
2017-06-26T22:32:15.330Z,23.10
2017-06-26T22:34:42.803Z,22.70
2017-06-26T22:37:10.239Z,22.40
2017-06-26T22:39:37.731Z,22.50
2017-06-26T22:42:05.944Z,23.40
2017-06-26T22:44:33.391Z,23.40
2017-06-26T22:47:00.834Z,23.80
2017-06-26T22:49:28.275Z,24.10
